createdAt,value
2019-01-11T00:00:57.288Z,3.22
2019-01-11T00:03:38.759Z,3.30
2019-01-11T00:06:20.052Z,3.03
2019-01-11T00:09:01.628Z,3.70
2019-01-11T00:11:43.048Z,3.17
2019-01-11T00:14:27.559Z,3.77
2019-01-11T00:17:08.929Z,7.97
2019-01-11T00:19:50.374Z,3.67
2019-01-11T00:22:31.661Z,4.40
2019-01-11T00:28:18.384Z,6.00
2019-01-11T00:30:59.784Z,4.95
2019-01-11T00:33:40.600Z,6.40
2019-01-11T00:36:21.481Z,5.63
2019-01-11T00:39:02.169Z,5.17
2019-01-11T00:41:43.704Z,4.95
2019-01-11T00:44:25.294Z,4.92
2019-01-11T00:47:06.015Z,5.45
2019-01-11T00:49:47.502Z,4.37
2019-01-11T00:52:28.322Z,6.53
2019-01-11T00:55:09.182Z,4.25
2019-01-11T00:57:49.874Z,6.75
2019-01-11T01:00:31.406Z,3.55
2019-01-11T01:03:12.129Z,5.67
2019-01-11T01:05:53.534Z,4.20
2019-01-11T01:08:34.879Z,4.30
2019-01-11T01:11:16.193Z,3.70
2019-01-11T01:13:57.112Z,3.55
2019-01-11T01:16:37.769Z,6.12
2019-01-11T01:19:20.081Z,3.70
2019-01-11T01:22:01.063Z,3.70
2019-01-11T01:24:41.812Z,5.40
2019-01-11T01:27:23.360Z,3.90
2019-01-11T01:30:04.727Z,5.00
2019-01-11T01:32:45.408Z,3.17
2019-01-11T01:35:26.881Z,2.33
2019-01-11T01:38:07.538Z,3.05
2019-01-11T01:40:49.176Z,3.45
2019-01-11T01:43:30.043Z,3.58
2019-01-11T01:46:11.270Z,2.42
2019-01-11T01:48:51.963Z,2.77
2019-01-11T01:51:33.534Z,2.25
2019-01-11T01:54:14.254Z,2.65
2019-01-11T01:56:54.921Z,3.25
2019-01-11T01:59:36.134Z,5.22
2019-01-11T02:02:17.480Z,3.45
2019-01-11T02:04:59.006Z,4.00
2019-01-11T02:07:40.319Z,3.20
2019-01-11T02:10:21.045Z,3.10
2019-01-11T02:13:02.597Z,3.25
2019-01-11T02:15:44.031Z,5.35
2019-01-11T02:18:25.379Z,2.40
2019-01-11T02:21:06.216Z,3.67
2019-01-11T02:23:46.922Z,3.25
2019-01-11T02:26:28.500Z,3.45
2019-01-11T02:29:10.059Z,4.20
2019-01-11T02:31:50.755Z,3.42
2019-01-11T02:34:31.461Z,3.90
2019-01-11T02:37:12.103Z,4.80
2019-01-11T02:39:53.492Z,3.62
2019-01-11T02:42:35.046Z,5.05
2019-01-11T02:45:15.993Z,5.37
2019-01-11T02:47:57.418Z,4.42
2019-01-11T02:50:39.072Z,3.70
2019-01-11T02:53:20.715Z,3.65
2019-01-11T02:56:02.171Z,3.62
2019-01-11T02:58:43.735Z,5.20
2019-01-11T03:01:25.398Z,6.60
2019-01-11T03:04:06.070Z,4.22
2019-01-11T03:06:46.773Z,4.90
2019-01-11T03:09:27.546Z,4.55
2019-01-11T03:12:08.746Z,4.72
2019-01-11T03:14:49.431Z,4.50
2019-01-11T03:17:30.819Z,5.03
2019-01-11T03:20:11.823Z,5.15
2019-01-11T03:22:52.542Z,5.05
2019-01-11T03:25:33.966Z,4.80
2019-01-11T03:28:15.441Z,4.87
2019-01-11T03:30:58.639Z,5.40
2019-01-11T03:33:39.652Z,3.72
2019-01-11T03:36:20.563Z,4.03
2019-01-11T03:39:01.704Z,3.67
2019-01-11T03:42:04.350Z,5.30
2019-01-11T03:44:44.960Z,3.45
2019-01-11T03:47:26.470Z,5.40
2019-01-11T03:50:07.775Z,3.62
2019-01-11T03:52:49.238Z,6.25
2019-01-11T03:55:30.815Z,6.92
2019-01-11T03:58:12.456Z,7.37
2019-01-11T04:00:53.870Z,6.42
2019-01-11T04:03:34.585Z,8.90
2019-01-11T04:06:15.962Z,11.28
2019-01-11T04:08:57.351Z,6.53
2019-01-11T04:11:38.030Z,5.60
2019-01-11T04:14:18.852Z,5.30
2019-01-11T04:17:00.433Z,5.58
2019-01-11T04:19:41.953Z,5.60
2019-01-11T04:22:27.158Z,5.25
2019-01-11T04:25:10.182Z,6.08
2019-01-11T04:27:52.044Z,5.60
2019-01-11T04:30:33.173Z,4.87
2019-01-11T04:33:14.774Z,5.90
2019-01-11T04:35:55.567Z,5.40
2019-01-11T04:38:37.159Z,6.03
2019-01-11T04:41:18.171Z,6.83
2019-01-11T04:43:58.929Z,5.55
2019-01-11T04:46:40.566Z,7.80
2019-01-11T04:49:21.350Z,7.10
2019-01-11T04:52:02.054Z,6.10
2019-01-11T04:54:43.470Z,5.67
2019-01-11T04:57:24.064Z,5.00
2019-01-11T05:00:04.747Z,5.35
2019-01-11T05:02:46.276Z,6.95
2019-01-11T05:05:27.049Z,7.50
2019-01-11T05:08:07.847Z,6.87
2019-01-11T05:10:48.742Z,5.20
2019-01-11T05:13:48.352Z,7.50
2019-01-11T05:16:29.216Z,6.65
2019-01-11T05:19:09.838Z,8.03
2019-01-11T05:21:50.812Z,6.65
2019-01-11T05:24:31.507Z,7.10
2019-01-11T05:27:12.168Z,6.55
2019-01-11T05:29:52.942Z,5.72
2019-01-11T05:32:34.361Z,6.95
2019-01-11T05:35:15.369Z,6.87
2019-01-11T05:37:57.024Z,7.53
2019-01-11T05:40:37.906Z,5.25
2019-01-11T05:43:19.397Z,6.58
2019-01-11T05:46:00.933Z,7.20
2019-01-11T05:48:41.737Z,7.67
2019-01-11T05:51:23.096Z,9.55
2019-01-11T05:54:03.884Z,6.90
2019-01-11T05:56:44.826Z,5.92
2019-01-11T05:59:25.533Z,7.37
2019-01-11T06:02:07.189Z,7.75
2019-01-11T06:04:50.935Z,7.08
2019-01-11T06:07:36.221Z,7.20
2019-01-11T06:10:17.393Z,6.55
2019-01-11T06:12:58.316Z,8.03
2019-01-11T06:15:39.887Z,9.05
2019-01-11T06:18:20.722Z,6.30
2019-01-11T06:21:02.178Z,7.37
2019-01-11T06:23:42.975Z,8.40
2019-01-11T06:26:23.985Z,5.87
2019-01-11T06:29:05.312Z,8.35
2019-01-11T06:31:46.246Z,8.73
2019-01-11T06:34:27.182Z,11.68
2019-01-11T06:37:08.370Z,8.33
2019-01-11T06:39:49.114Z,7.45
2019-01-11T06:42:30.744Z,8.28
2019-01-11T06:45:12.255Z,11.10
2019-01-11T06:47:53.719Z,9.75
2019-01-11T06:50:36.543Z,7.17
2019-01-11T06:53:17.844Z,9.88
2019-01-11T06:55:59.277Z,9.90
2019-01-11T06:58:40.873Z,9.10
2019-01-11T07:01:21.968Z,8.23
2019-01-11T07:04:02.984Z,9.83
2019-01-11T07:06:44.534Z,7.03
2019-01-11T07:09:25.181Z,8.98
2019-01-11T07:12:07.745Z,8.70
2019-01-11T07:14:49.100Z,9.55
2019-01-11T07:17:30.732Z,19.02
2019-01-11T07:20:12.204Z,9.08
2019-01-11T07:22:52.887Z,11.55
2019-01-11T07:25:34.456Z,8.33
2019-01-11T07:28:15.864Z,10.98
2019-01-11T07:31:15.505Z,7.53
2019-01-11T07:33:56.414Z,10.20
2019-01-11T07:36:38.141Z,9.28
2019-01-11T07:42:28.751Z,8.95
2019-01-11T07:45:10.213Z,9.30
2019-01-11T07:47:50.888Z,7.05
2019-01-11T07:50:31.864Z,9.93
2019-01-11T07:53:13.369Z,8.40
2019-01-11T07:55:54.082Z,7.20
2019-01-11T07:58:35.750Z,8.00
2019-01-11T08:01:17.313Z,11.48
2019-01-11T08:03:58.083Z,7.72
2019-01-11T08:06:39.588Z,8.70
2019-01-11T08:09:21.097Z,8.55
2019-01-11T08:12:02.636Z,6.03
2019-01-11T08:14:43.730Z,5.90
2019-01-11T08:17:24.557Z,7.25
2019-01-11T08:20:05.979Z,6.72
2019-01-11T08:22:46.673Z,5.85
2019-01-11T08:25:28.335Z,6.58
2019-01-11T08:28:09.889Z,6.53
2019-01-11T08:30:51.321Z,7.55
2019-01-11T08:33:33.861Z,5.28
2019-01-11T08:36:15.370Z,7.47
2019-01-11T08:38:56.839Z,7.42
2019-01-11T08:41:38.685Z,6.40
2019-01-11T08:44:19.663Z,7.80
2019-01-11T08:47:00.421Z,6.08
2019-01-11T08:49:41.293Z,6.40
2019-01-11T08:52:22.086Z,9.25
2019-01-11T08:55:03.506Z,6.72
2019-01-11T08:57:44.118Z,12.55
2019-01-11T09:00:24.889Z,10.25
2019-01-11T09:03:05.607Z,9.00
2019-01-11T09:05:45.379Z,7.67
2019-01-11T09:11:20.720Z,6.90
2019-01-11T09:14:03.089Z,14.35
2019-01-11T09:16:44.460Z,6.65
2019-01-11T09:19:25.173Z,4.83
2019-01-11T09:22:05.866Z,6.60
2019-01-11T09:24:47.260Z,6.40
2019-01-11T09:27:28.736Z,5.10
2019-01-11T09:30:10.327Z,8.55
2019-01-11T09:32:51.893Z,6.05
2019-01-11T09:35:33.222Z,6.62
2019-01-11T09:38:14.749Z,5.70
2019-01-11T09:40:55.897Z,6.10
2019-01-11T09:43:37.034Z,4.87
2019-01-11T09:46:17.855Z,6.12
2019-01-11T09:48:58.873Z,8.03
2019-01-11T09:51:40.364Z,6.65
2019-01-11T09:54:21.947Z,6.95
2019-01-11T09:57:02.580Z,7.60
2019-01-11T09:59:43.311Z,9.65
2019-01-11T10:05:36.710Z,7.58
2019-01-11T10:08:18.125Z,6.25
2019-01-11T10:10:59.592Z,9.10
2019-01-11T10:16:23.770Z,9.38
2019-01-11T10:19:05.101Z,10.07
2019-01-11T10:21:46.031Z,7.37
2019-01-11T10:24:27.614Z,11.33
2019-01-11T10:27:08.422Z,9.50
2019-01-11T10:29:49.200Z,8.65
2019-01-11T10:32:30.101Z,8.03
2019-01-11T10:38:15.891Z,8.88
2019-01-11T10:40:56.752Z,8.88
2019-01-11T10:43:37.945Z,10.23
2019-01-11T10:46:33.456Z,10.88
2019-01-11T10:49:14.137Z,9.68
2019-01-11T10:51:54.860Z,10.37
2019-01-11T10:57:46.763Z,8.40
2019-01-11T11:00:28.289Z,8.33
2019-01-11T11:03:09.834Z,9.03
2019-01-11T11:05:51.386Z,10.93
2019-01-11T11:08:32.773Z,10.55
2019-01-11T11:11:16.672Z,9.68
2019-01-11T11:13:56.864Z,9.70
2019-01-11T11:16:38.478Z,10.60
2019-01-11T11:19:19.982Z,9.07
2019-01-11T11:22:01.529Z,9.30
2019-01-11T11:24:42.978Z,12.45
2019-01-11T11:27:24.207Z,9.78
2019-01-11T11:30:05.735Z,8.83
2019-01-11T11:33:05.351Z,9.20
2019-01-11T11:35:46.912Z,11.22
2019-01-11T11:38:27.687Z,14.33
2019-01-11T11:41:08.344Z,7.17
2019-01-11T11:43:49.803Z,9.60
2019-01-11T11:46:31.372Z,11.60
2019-01-11T11:49:12.218Z,8.75
2019-01-11T11:51:53.213Z,10.70
2019-01-11T11:54:34.081Z,9.63
2019-01-11T12:00:20.124Z,9.05
2019-01-11T12:03:01.630Z,9.07
2019-01-11T12:05:42.997Z,9.93
2019-01-11T12:08:23.836Z,10.33
2019-01-11T12:11:05.374Z,7.00
2019-01-11T12:13:46.253Z,11.80
2019-01-11T12:16:27.754Z,9.35
2019-01-11T12:19:09.301Z,11.63
2019-01-11T12:21:50.802Z,10.30
2019-01-11T12:24:32.126Z,9.33
2019-01-11T12:27:13.710Z,11.40
2019-01-11T12:29:55.070Z,12.70
2019-01-11T12:32:36.476Z,12.60
2019-01-11T12:35:17.270Z,13.27
2019-01-11T12:37:58.658Z,17.00
2019-01-11T12:40:39.385Z,10.53
2019-01-11T12:43:20.133Z,15.28
2019-01-11T12:46:01.025Z,13.08
2019-01-11T12:48:42.925Z,11.67
2019-01-11T12:51:24.692Z,8.10
2019-01-11T12:54:07.504Z,13.48
2019-01-11T12:56:49.913Z,10.38
2019-01-11T12:59:32.639Z,12.00
2019-01-11T13:02:15.689Z,9.80
2019-01-11T13:04:57.736Z,12.63
2019-01-11T13:07:38.914Z,10.43
2019-01-11T13:10:20.464Z,10.00
2019-01-11T13:13:01.116Z,7.42
2019-01-11T13:15:42.580Z,12.03
2019-01-11T13:18:24.105Z,11.25
2019-01-11T13:21:04.858Z,11.40
2019-01-11T13:23:45.605Z,10.00
2019-01-11T13:26:26.315Z,11.53
2019-01-11T13:29:07.157Z,9.30
2019-01-11T13:31:48.493Z,12.10
2019-01-11T13:34:29.872Z,12.55
2019-01-11T13:37:10.572Z,11.23
2019-01-11T13:39:52.143Z,10.83
2019-01-11T13:42:32.762Z,5.15
2019-01-11T13:45:14.397Z,9.70
2019-01-11T13:47:55.066Z,10.90
2019-01-11T13:50:36.606Z,8.78
2019-01-11T13:53:17.293Z,6.83
2019-01-11T13:55:58.681Z,20.47
2019-01-11T13:58:39.425Z,9.90
2019-01-11T14:01:20.834Z,7.87
2019-01-11T14:04:02.398Z,8.85
2019-01-11T14:06:43.125Z,7.50
2019-01-11T14:09:24.410Z,8.17
2019-01-11T14:12:05.913Z,8.30
2019-01-11T14:14:47.448Z,9.65
2019-01-11T14:17:29.085Z,9.27
2019-01-11T14:20:09.790Z,9.23
2019-01-11T14:22:50.516Z,7.70
2019-01-11T14:25:31.907Z,10.87
2019-01-11T14:28:13.259Z,13.15
2019-01-11T14:30:53.977Z,12.93
2019-01-11T14:33:35.144Z,12.63
2019-01-11T14:36:16.759Z,11.27
2019-01-11T14:38:58.583Z,11.73
2019-01-11T14:41:42.059Z,12.30
2019-01-11T14:44:24.189Z,12.70
2019-01-11T14:47:06.457Z,13.10
2019-01-11T14:49:48.589Z,10.60
2019-01-11T14:52:29.543Z,12.37
2019-01-11T14:55:10.569Z,14.77
2019-01-11T14:57:51.422Z,13.40
2019-01-11T15:00:32.400Z,14.10
2019-01-11T15:03:13.194Z,11.60
2019-01-11T15:05:54.190Z,10.43
2019-01-11T15:08:35.062Z,9.87
2019-01-11T15:11:16.072Z,10.27
2019-01-11T15:13:57.228Z,18.82
2019-01-11T15:16:38.678Z,14.05
2019-01-11T15:19:20.021Z,12.43
2019-01-11T15:22:00.789Z,10.10
2019-01-11T15:24:41.424Z,12.73
2019-01-11T15:27:22.101Z,10.45
2019-01-11T15:30:03.490Z,8.20
2019-01-11T15:32:44.307Z,13.33
2019-01-11T15:35:25.473Z,9.80
2019-01-11T15:38:06.343Z,11.20
2019-01-11T15:40:47.122Z,10.47
2019-01-11T15:43:28.627Z,7.87
2019-01-11T15:46:14.910Z,9.07
2019-01-11T15:48:52.041Z,14.10
2019-01-11T15:51:32.817Z,11.77
2019-01-11T15:54:13.926Z,12.80
2019-01-11T15:56:54.802Z,11.20
2019-01-11T15:59:36.057Z,13.53
2019-01-11T16:02:17.115Z,13.60
2019-01-11T16:04:58.496Z,10.00
2019-01-11T16:07:39.425Z,12.58
2019-01-11T16:10:21.122Z,14.68
2019-01-11T16:13:02.499Z,11.37
2019-01-11T16:15:43.366Z,13.10
2019-01-11T16:18:24.691Z,11.83
2019-01-11T16:23:48.533Z,11.90
2019-01-11T16:26:30.012Z,12.40
2019-01-11T16:29:10.747Z,10.98
2019-01-11T16:31:52.145Z,11.45
2019-01-11T16:34:33.412Z,12.75
2019-01-11T16:37:14.236Z,10.98
2019-01-11T16:39:55.097Z,8.65
2019-01-11T16:42:38.850Z,10.93
2019-01-11T16:45:19.131Z,9.40
2019-01-11T16:48:00.712Z,7.83
2019-01-11T16:50:42.184Z,10.93
2019-01-11T16:53:22.837Z,10.93
2019-01-11T16:56:04.153Z,9.60
2019-01-11T16:58:44.894Z,7.83
2019-01-11T17:01:25.809Z,8.70
2019-01-11T17:04:06.822Z,8.90
2019-01-11T17:06:47.761Z,9.35
2019-01-11T17:09:28.534Z,10.33
2019-01-11T17:12:09.242Z,8.33
2019-01-11T17:14:50.605Z,9.08
2019-01-11T17:17:31.370Z,10.40
2019-01-11T17:20:12.161Z,10.35
2019-01-11T17:22:53.382Z,9.17
2019-01-11T17:25:34.657Z,13.43
2019-01-11T17:28:16.295Z,8.95
2019-01-11T17:30:57.930Z,9.07
2019-01-11T17:33:38.739Z,8.90
2019-01-11T17:36:19.466Z,11.40
2019-01-11T17:39:00.137Z,11.83
2019-01-11T17:41:41.495Z,12.10
2019-01-11T17:44:23.054Z,11.78
2019-01-11T17:47:03.677Z,10.35
2019-01-11T17:49:45.198Z,12.25
2019-01-11T17:52:26.537Z,11.50
2019-01-11T17:55:07.357Z,11.50
2019-01-11T17:57:49.042Z,12.20
2019-01-11T18:00:30.650Z,12.13
2019-01-11T18:03:12.026Z,12.00
2019-01-11T18:05:52.898Z,12.30
2019-01-11T18:08:34.445Z,11.18
2019-01-11T18:11:15.698Z,10.25
2019-01-11T18:13:57.170Z,11.57
2019-01-11T18:16:38.622Z,7.83
2019-01-11T18:19:19.289Z,12.60
2019-01-11T18:22:00.093Z,11.97
2019-01-11T18:24:41.669Z,7.92
2019-01-11T18:27:22.672Z,10.80
2019-01-11T18:30:04.357Z,11.35
2019-01-11T18:32:45.800Z,13.53
2019-01-11T18:35:27.234Z,10.85
2019-01-11T18:38:07.865Z,9.85
2019-01-11T18:40:48.695Z,11.38
2019-01-11T18:43:29.439Z,5.90
2019-01-11T18:46:11.102Z,9.93
2019-01-11T18:48:51.869Z,8.18
2019-01-11T18:51:33.385Z,9.73
2019-01-11T18:54:14.999Z,7.62
2019-01-11T18:56:56.402Z,5.33
2019-01-11T18:59:38.022Z,9.33
2019-01-11T19:02:19.558Z,9.05
2019-01-11T19:05:00.255Z,7.25
2019-01-11T19:07:45.932Z,8.50
2019-01-11T19:10:24.075Z,6.67
2019-01-11T19:13:05.609Z,7.17
2019-01-11T19:15:46.406Z,5.65
2019-01-11T19:18:27.266Z,9.88
2019-01-11T19:21:08.791Z,8.07
2019-01-11T19:23:50.229Z,9.48
2019-01-11T19:26:31.807Z,10.65
2019-01-11T19:29:13.079Z,8.98
2019-01-11T19:31:54.392Z,7.08
2019-01-11T19:34:35.969Z,7.40
2019-01-11T19:37:16.834Z,7.00
2019-01-11T19:39:58.485Z,6.00
2019-01-11T19:42:39.949Z,7.87
2019-01-11T19:45:20.751Z,8.93
2019-01-11T19:48:02.389Z,8.08
2019-01-11T19:50:43.866Z,8.48
2019-01-11T19:53:27.633Z,7.25
2019-01-11T19:56:07.526Z,7.30
2019-01-11T19:58:48.646Z,9.53
2019-01-11T20:01:30.141Z,8.45
2019-01-11T20:04:11.683Z,5.22
2019-01-11T20:06:53.132Z,8.85
2019-01-11T20:09:33.906Z,8.23
2019-01-11T20:12:16.460Z,9.55
2019-01-11T20:14:57.724Z,8.15
2019-01-11T20:17:39.075Z,8.48
2019-01-11T20:20:20.575Z,9.30
2019-01-11T20:23:02.796Z,8.60
2019-01-11T20:25:43.683Z,9.13
2019-01-11T20:28:24.976Z,8.85
2019-01-11T20:31:06.554Z,8.60
2019-01-11T20:33:48.020Z,8.23
2019-01-11T20:36:28.852Z,8.53
2019-01-11T20:39:09.794Z,5.53
2019-01-11T20:41:51.388Z,7.35
2019-01-11T20:44:32.892Z,10.93
2019-01-11T20:47:13.753Z,11.75
2019-01-11T20:49:55.501Z,9.10
2019-01-11T20:52:36.592Z,10.05
2019-01-11T20:55:17.895Z,9.68
2019-01-11T20:57:59.528Z,10.40
2019-01-11T21:00:40.838Z,12.73
2019-01-11T21:03:22.673Z,8.00
2019-01-11T21:06:03.894Z,11.50
2019-01-11T21:08:45.452Z,10.05
2019-01-11T21:11:27.172Z,10.78
2019-01-11T21:14:08.660Z,9.30
2019-01-11T21:16:50.190Z,11.75
2019-01-11T21:19:30.927Z,5.53
2019-01-11T21:22:11.686Z,9.85
2019-01-11T21:24:59.979Z,8.08
2019-01-11T21:27:36.425Z,9.53
2019-01-11T21:30:18.217Z,8.47
2019-01-11T21:32:59.005Z,6.65
2019-01-11T21:35:40.532Z,10.05
2019-01-11T21:38:22.022Z,9.78
2019-01-11T21:41:02.801Z,9.00
2019-01-11T21:43:44.422Z,9.48
2019-01-11T21:46:25.620Z,9.73
2019-01-11T21:49:06.588Z,6.30
2019-01-11T21:51:48.119Z,6.95
2019-01-11T21:54:28.906Z,9.93
2019-01-11T21:57:10.373Z,10.32
2019-01-11T21:59:51.894Z,8.93
2019-01-11T22:02:33.401Z,10.70
2019-01-11T22:05:14.301Z,6.92
2019-01-11T22:07:55.071Z,8.28
2019-01-11T22:10:36.589Z,7.75
2019-01-11T22:13:18.222Z,6.65
2019-01-11T22:15:58.953Z,8.45
2019-01-11T22:18:39.829Z,6.83
2019-01-11T22:21:20.641Z,8.60
2019-01-11T22:24:03.278Z,8.55
2019-01-11T22:26:44.679Z,8.70
2019-01-11T22:29:26.299Z,10.50
2019-01-11T22:32:07.713Z,9.48
2019-01-11T22:34:49.323Z,9.10
2019-01-11T22:37:30.792Z,8.58
2019-01-11T22:40:11.490Z,9.45
2019-01-11T22:42:52.209Z,5.97
2019-01-11T22:45:32.926Z,8.53
2019-01-11T22:48:14.366Z,7.12
2019-01-11T22:50:55.968Z,7.83
2019-01-11T22:53:36.641Z,9.80
2019-01-11T22:56:17.521Z,6.47
2019-01-11T22:58:59.133Z,5.97
2019-01-11T23:01:39.775Z,11.78
2019-01-11T23:04:21.371Z,10.65
2019-01-11T23:07:02.934Z,6.65
2019-01-11T23:09:43.738Z,6.37
2019-01-11T23:12:25.078Z,10.75
2019-01-11T23:15:06.701Z,9.70
2019-01-11T23:17:47.377Z,13.35
2019-01-11T23:20:28.841Z,8.38
2019-01-11T23:23:09.673Z,10.65
2019-01-11T23:25:51.116Z,6.45
2019-01-11T23:28:32.470Z,10.00
2019-01-11T23:31:13.755Z,10.08
2019-01-11T23:33:55.226Z,10.93
2019-01-11T23:36:35.986Z,10.30
2019-01-11T23:39:16.767Z,13.22
2019-01-11T23:41:58.269Z,11.83
2019-01-11T23:44:39.818Z,10.13
2019-01-11T23:47:21.430Z,11.17
2019-01-11T23:50:02.394Z,12.65
2019-01-11T23:52:44.053Z,10.05
2019-01-11T23:55:24.758Z,9.28
2019-01-11T23:58:06.381Z,9.95
